Home > Products > Valid Products > TAF

000
FTUS43 KDVN 171900 AAA
TAFCID
TAF AMD
KCID 171907Z 1719/1818 15006KT P6SM BKN030
     FM180000 VRB03KT P6SM SKC
     FM181400 11005KT P6SM SKC=



000
FTUS43 KDVN 171700
TAFBRL
TAF
KBRL 171720Z 1718/1818 16005KT P6SM BKN070
     FM180000 VRB03KT P6SM SKC
     FM181400 10005KT P6SM SKC=



000
FTUS43 KDVN 171700
TAFCID
TAF
KCID 171720Z 1718/1818 15006KT P6SM SCT070
     FM180000 VRB03KT P6SM SKC
     FM181400 11005KT P6SM SKC=



000
FTUS43 KDVN 171700
TAFDBQ
TAF
KDBQ 171720Z 1718/1818 21005KT P6SM BKN090
     FM180000 VRB03KT P6SM SKC
     FM181400 10005KT P6SM SKC=



000
FTUS43 KDVN 171700
TAFMLI
TAF
KMLI 171720Z 1718/1818 18005KT P6SM BKN090
     FM180000 VRB03KT P6SM SKC
     FM181400 10005KT P6SM SKC=



000
FTUS43 KDVN 171100
TAFBRL
TAF
KBRL 171120Z 1712/1812 16004KT P6SM BKN050
     FM180000 VRB02KT P6SM SCT050=



000
FTUS43 KDVN 171100
TAFCID
TAF
KCID 171120Z 1712/1812 14004KT P6SM SCT080
     FM180000 VRB02KT P6SM SKC=



000
FTUS43 KDVN 171100
TAFMLI
TAF
KMLI 171120Z 1712/1812 14004KT P6SM SCT080
     FM180000 VRB02KT P6SM SKC=



000
FTUS43 KDVN 171100
TAFDBQ
TAF
KDBQ 171120Z 1712/1812 17004KT P6SM SCT080
     FM180000 VRB02KT P6SM SKC=



000
FTUS43 KDVN 170500
TAFMLI
TAF
KMLI 170520Z 1706/1806 21003KT P6SM SKC=



000
FTUS43 KDVN 170500
TAFBRL
TAF
KBRL 170520Z 1706/1806 19003KT P6SM SKC=



000
FTUS43 KDVN 170500
TAFDBQ
TAF
KDBQ 170520Z 1706/1806 21003KT P6SM SKC=



000
FTUS43 KDVN 170500
TAFCID
TAF
KCID 170520Z 1706/1806 18003KT P6SM SKC=



000
FTUS43 KDVN 162300
TAFDBQ
TAF
KDBQ 162320Z 1700/1724 21003KT P6SM SKC=



000
FTUS43 KDVN 162300
TAFCID
TAF
KCID 162320Z 1700/1724 18003KT P6SM SKC=



000
FTUS43 KDVN 162300
TAFMLI
TAF
KMLI 162320Z 1700/1724 21003KT P6SM SKC=



000
FTUS43 KDVN 162300
TAFBRL
TAF
KBRL 162320Z 1700/1724 19003KT P6SM SKC=



000
FTUS43 KDVN 161700 RRA
TAFCID
TAF
KCID 161749Z 1618/1718 20003KT P6SM SKC=



000
FTUS43 KDVN 161700 RRA
TAFMLI
TAF
KMLI 161749Z 1618/1718 20003KT P6SM SKC=



000
FTUS43 KDVN 161700 RRA
TAFDBQ
TAF
KDBQ 161749Z 1618/1718 20003KT P6SM SKC=



000
FTUS43 KDVN 161700 RRA
TAFBRL
TAF
KBRL 161749Z 1618/1718 20003KT P6SM SKC=



000
FTUS43 KDVN 161100
TAFBRL
TAF
KBRL 161125Z 1612/1712 32003KT 6SM BR SKC
      TEMPO 1612/1613 5SM BR
     FM161500 VRB03KT P6SM SKC=



000
FTUS43 KDVN 161100
TAFMLI
TAF
KMLI 161125Z 1612/1712 00000KT 6SM BR SKC
      TEMPO 1612/1613 5SM BR
     FM161500 VRB03KT P6SM SKC=



000
FTUS43 KDVN 161100
TAFDBQ
TAF
KDBQ 161125Z 1612/1712 00000KT P6SM SKC
      TEMPO 1612/1613 5SM BR
     FM161500 25005KT P6SM SKC=



000
FTUS43 KDVN 161100
TAFCID
TAF
KCID 161125Z 1612/1712 31003KT 6SM BR SKC
      TEMPO 1612/1613 5SM BR
     FM161500 VRB03KT P6SM SKC=



000
FTUS43 KDVN 160900 AAB
TAFBRL
TAF AMD
KBRL 160909Z 1609/1706 00000KT P6SM SKC
      TEMPO 1609/1612 4SM BR
     FM161400 VRB03KT P6SM SKC=



000
FTUS43 KDVN 160900 AAA
TAFDBQ
TAF AMD
KDBQ 160908Z 1609/1706 36003KT P6SM SKC
      TEMPO 1609/1612 3SM BR
     FM161500 26005KT P6SM SKC=



000
FTUS43 KDVN 160900 AAA
TAFCID
TAF AMD
KCID 160907Z 1609/1706 30002KT P6SM SKC
      TEMPO 1609/1612 3SM BR
     FM161300 24005KT P6SM SKC=



000
FTUS43 KDVN 160800 AAA
TAFBRL
TAF AMD
KBRL 160806Z 1608/1706 31003KT P6SM SKC
     FM160900 00000KT 4SM BR SKC
      TEMPO 1609/1612 2SM BR
     FM161300 33003KT P6SM SKC=



000
FTUS43 KDVN 160800 AAA
TAFMLI
TAF AMD
KMLI 160805Z 1608/1706 00000KT 3SM BR SKC
      TEMPO 1609/1612 1 1/2SM BR
     FM161330 VRB03KT P6SM SKC=



000
FTUS43 KDVN 160500
TAFBRL
TAF
KBRL 160520Z 1606/1706 00000KT P6SM SKC
     FM160800 00000KT 4SM BR SKC
      TEMPO 1609/1612 2SM BR
     FM161300 33003KT P6SM SKC=



000
FTUS43 KDVN 160500
TAFDBQ
TAF
KDBQ 160520Z 1606/1706 00000KT P6SM SKC
     FM160900 00000KT 4SM BR SKC
      TEMPO 1609/1612 2SM BR
     FM161300 26005KT P6SM SKC=



000
FTUS43 KDVN 160500
TAFMLI
TAF
KMLI 160520Z 1606/1706 00000KT P6SM SKC
      TEMPO 1609/1612 4SM BR
     FM161500 25004KT P6SM SKC=



000
FTUS43 KDVN 160500
TAFCID
TAF
KCID 160520Z 1606/1706 00000KT P6SM SKC
     FM160900 00000KT 4SM BR SKC
      TEMPO 1610/1612 2SM BR
     FM161300 24005KT P6SM SKC=



000
FTUS43 KDVN 160100 AAA
TAFBRL
TAF AMD
KBRL 160113Z 1601/1624 01008KT P6SM BKN020
     FM160200 01007KT P6SM SCT020
      TEMPO 1602/1603 BKN025
     FM160400 34003KT P6SM SKC=



000
FTUS43 KDVN 160000 AAA
TAFMLI
TAF AMD
KMLI 160008Z 1600/1624 02008KT P6SM BKN025
     FM160100 01006KT P6SM SCT028 BKN040
     FM160300 02003KT P6SM SKC=



000
FTUS43 KDVN 152300
TAFMLI
TAF
KMLI 152320Z 1600/1624 01009KT P6SM BKN040
     FM160300 02003KT P6SM SKC=



000
FTUS43 KDVN 152300
TAFCID
TAF
KCID 152320Z 1600/1624 36008KT P6SM BKN035
     FM160300 34003KT P6SM SKC
     FM161300 22004KT P6SM SKC=



000
FTUS43 KDVN 152300
TAFDBQ
TAF
KDBQ 152320Z 1600/1624 34005KT P6SM BKN035
     FM160300 35003KT P6SM SKC
     FM161700 26007KT P6SM SKC=



000
FTUS43 KDVN 152300
TAFBRL
TAF
KBRL 152320Z 1600/1624 36009KT P6SM SCT026 BKN035
      TEMPO 1600/1601 BKN026
     FM160400 34003KT P6SM SKC=



000
FTUS43 KDVN 152200 AAB
TAFMLI
TAF AMD
KMLI 152257Z 1523/1618 02010KT P6SM BKN016 BKN050
     FM160000 01008KT P6SM SCT020 BKN040
     FM160500 01003KT P6SM SKC=



000
FTUS43 KDVN 152200 AAA
TAFBRL
TAF AMD
KBRL 152219Z 1522/1618 36012G20KT P6SM SCT025 BKN035
      TEMPO 1522/1524 BKN025
     FM160000 35010KT P6SM SCT030 BKN050
     FM160300 35003KT P6SM SKC=



000
FTUS43 KDVN 152100 AAA
TAFMLI
TAF AMD
KMLI 152126Z 1521/1618 02012G20KT P6SM SCT025 OVC030
      TEMPO 1522/1524 BKN025
     FM160000 01008KT P6SM SCT050
     FM160500 01003KT P6SM SKC=



000
FTUS43 KDVN 152100 AAB
TAFDBQ
TAF AMD
KDBQ 152115Z 1521/1618 36011KT P6SM SCT020 BKN070
      TEMPO 1521/1523 BKN019
     FM152300 35003KT P6SM SKC
     FM161300 20004KT P6SM SKC=



000
FTUS43 KDVN 152000 AAA
TAFCID
TAF AMD
KCID 152047Z 1521/1618 36012G18KT P6SM FEW025 BKN040
      TEMPO 1521/1522 -SHRA BKN025
     FM152200 36011KT P6SM BKN040
     FM160000 34003KT P6SM SKC
     FM161300 20004KT P6SM SKC=



000
FTUS43 KDVN 151700 AAA
TAFDBQ
TAF AMD
KDBQ 151757Z 1518/1618 01011KT P6SM VCSH SCT035 OVC050
      TEMPO 1518/1519 4SM -SHRA BR BKN007 OVC025
     FM152000 36011KT P6SM SCT025 BKN040
     FM152300 35003KT P6SM SKC
     FM161300 20004KT P6SM SKC=



000
FTUS43 KDVN 151700
TAFCID
TAF
KCID 151726Z 1518/1618 35012KT P6SM VCSH FEW020 OVC030
      TEMPO 1518/1519 -SHRA BKN015 OVC025
     FM152000 36011KT P6SM BKN040
     FM152300 34003KT P6SM SKC
     FM161300 20004KT P6SM SKC=



000
FTUS43 KDVN 151700
TAFMLI
TAF
KMLI 151726Z 1518/1618 06006KT P6SM VCSH BKN090
     FM152000 36012KT P6SM BKN035
     FM160100 34003KT P6SM SKC
     FM161300 20004KT P6SM SKC=



000
FTUS43 KDVN 151700
TAFDBQ
TAF
KDBQ 151726Z 1518/1618 01011KT P6SM VCSH SCT040 OVC060
      TEMPO 1518/1519 -SHRA OVC025
     FM152000 36011KT P6SM SCT025 BKN040
     FM152300 35003KT P6SM SKC
     FM161300 20004KT P6SM SKC=



000
FTUS43 KDVN 151700
TAFBRL
TAF
KBRL 151726Z 1518/1618 14003KT P6SM FEW005 OVC050
     FM152000 36012KT P6SM BKN035
     FM160100 34003KT P6SM SKC
     FM161300 20004KT P6SM SKC=



000
FTUS43 KDVN 151500 AAA
TAFDBQ
TAF AMD
KDBQ 151532Z 1516/1612 04004KT P6SM BKN050
      TEMPO 1516/1517 5SM -RA BR SCT012 OVC025
     FM151700 36010KT P6SM VCSH OVC025
      TEMPO 1518/1519 -SHRA
     FM152000 36011KT P6SM BKN035
     FM160000 35003KT P6SM SKC=



000
FTUS43 KDVN 151400 AAA
TAFBRL
TAF AMD
KBRL 151431Z 1515/1612 06004KT P6SM VCSH FEW030 OVC050
      TEMPO 1515/1516 3SM -SHRA BR BKN025 OVC040
     FM151800 34008KT P6SM OVC025
      TEMPO 1518/1520 -SHRA
     FM152300 34010KT P6SM BKN040
     FM160200 36004KT P6SM SCT250=



000
FTUS43 KDVN 151400 AAA
TAFMLI
TAF AMD
KMLI 151428Z 1514/1612 09004KT P6SM VCSH BKN050
     FM151500 03004KT P6SM SCT080
     FM151730 34009KT P6SM VCSH OVC025
      TEMPO 1518/1520 -SHRA
     FM152100 36012KT P6SM BKN040
     FM160100 34003KT P6SM SCT250=



000
FTUS43 KDVN 151400 AAA
TAFCID
TAF AMD
KCID 151417Z 1514/1612 VRB05KT P6SM VCSH SCT090
     FM151630 35012KT P6SM VCSH OVC025
      TEMPO 1517/1519 -SHRA
     FM152000 36014KT P6SM BKN040
     FM160000 34003KT P6SM SKC=



000
FTUS43 KDVN 151100
TAFCID
TAF
KCID 151130Z 1512/1612 16005KT P6SM VCSH SCT025 OVC040
      TEMPO 1512/1514 5SM -SHRA BKN025
     FM151400 14005KT 5SM -SHRA BKN025 OVC050
     FM151800 35013KT P6SM VCSH OVC025
      TEMPO 1518/1519 -SHRA
     FM152000 36014KT P6SM BKN040
     FM160000 34003KT P6SM SKC=



000
FTUS43 KDVN 151100
TAFBRL
TAF
KBRL 151130Z 1512/1612 17004KT P6SM VCTS SCT025CB OVC035
      TEMPO 1512/1514 3SM -TSRA BR BKN025CB
     FM151400 20006KT 5SM -SHRA BR VCTS OVC025CB
     FM151800 29007KT P6SM OVC025
      TEMPO 1518/1520 6SM -SHRA
     FM152300 34010KT P6SM BKN040
     FM160200 36004KT P6SM SCT250=



000
FTUS43 KDVN 151100
TAFMLI
TAF
KMLI 151130Z 1512/1612 12004KT P6SM VCSH BKN035
      TEMPO 1512/1514 3SM -TSRA BKN025CB
     FM151400 23006KT 4SM -SHRA BR OVC025
     FM151800 31008KT P6SM OVC025
      TEMPO 1518/1520 -SHRA
     FM152100 36012KT P6SM BKN040
     FM160100 34003KT P6SM SCT250=



000
FTUS43 KDVN 151100
TAFDBQ
TAF
KDBQ 151130Z 1512/1612 20004KT P6SM BKN050
     FM151500 11004KT 4SM -RA BR OVC035
     FM151800 36010KT P6SM VCSH OVC025
      TEMPO 1518/1519 -SHRA
     FM152000 36011KT P6SM BKN035
     FM160000 35003KT P6SM SKC=



000
FTUS43 KDVN 151000 AAA
TAFBRL
TAF AMD
KBRL 151018Z 1510/1606 17004KT P6SM VCSH SCT025 OVC035
      TEMPO 1510/1513 6SM -SHRA BR BKN025
     FM151300 20006KT 5SM -RA BR OVC025
     FM151800 29007KT P6SM OVC025
      TEMPO 1518/1520 6SM -SHRA
     FM152300 30010KT P6SM BKN040
     FM160200 33003KT P6SM SKC=



000
FTUS43 KDVN 151000 AAA
TAFMLI
TAF AMD
KMLI 151016Z 1510/1606 VRB03KT P6SM VCSH BKN035
      TEMPO 1510/1512 2SM -TSRA BKN025CB
     FM151200 12003KT 4SM -SHRA SCT025 OVC035
     FM151500 23006KT 4SM -RA BR OVC025
     FM151800 30008KT P6SM OVC025
      TEMPO 1518/1520 -SHRA
     FM152100 33011KT P6SM BKN050
     FM160100 34003KT P6SM SKC=



000
FTUS43 KDVN 150500
TAFDBQ
TAF
KDBQ 150520Z 1506/1606 20004KT P6SM BKN050
      TEMPO 1512/1514 -SHRA BKN025
     FM151400 15004KT 4SM -RA BR OVC025
     FM151700 30010KT P6SM OVC025
      TEMPO 1517/1519 -SHRA
     FM152000 35010KT P6SM BKN035
     FM160000 35003KT P6SM SKC=



000
FTUS43 KDVN 150500
TAFCID
TAF
KCID 150520Z 1506/1606 16004KT P6SM SCT050 BKN120
      TEMPO 1512/1514 -SHRA BKN025
     FM151400 14005KT 4SM -RA BR BKN025 OVC050
     FM151800 34012KT P6SM OVC025
      TEMPO 1518/1520 -SHRA
     FM152000 35012KT P6SM BKN040
     FM160100 34003KT P6SM SKC=



000
FTUS43 KDVN 150500
TAFBRL
TAF
KBRL 150520Z 1506/1606 15003KT P6SM BKN050
      TEMPO 1510/1513 6SM -SHRA BR BKN040
     FM151300 20006KT 5SM -RA BR OVC025
     FM151800 29007KT P6SM OVC025
      TEMPO 1518/1520 6SM -SHRA
     FM152300 30010KT P6SM BKN040
     FM160200 33003KT P6SM SKC=



000
FTUS43 KDVN 150500
TAFMLI
TAF
KMLI 150520Z 1506/1606 16003KT P6SM SCT050 BKN120
      TEMPO 1512/1515 6SM -SHRA BKN030
     FM151500 23006KT 4SM -RA BR OVC025
     FM151800 30008KT P6SM OVC025
      TEMPO 1518/1520 -SHRA
     FM152100 33011KT P6SM BKN050
     FM160100 34003KT P6SM SKC=



000
FTUS43 KDVN 142300
TAFBRL
TAF
KBRL 142320Z 1500/1524 22004KT P6SM SCT120
     FM150900 17004KT P6SM BKN050
      TEMPO 1509/1512 6SM -SHRA BR BKN025
     FM151200 20006KT 5SM -RA BR BKN025
     FM151800 29007KT P6SM OVC030
      TEMPO 1518/1520 -SHRA
     FM152100 30010KT P6SM BKN050=



000
FTUS43 KDVN 142300
TAFCID
TAF
KCID 142320Z 1500/1524 20006KT P6SM SCT050 BKN120 PROB30 1509/1512
      -SHRA BKN050
     FM151200 18005KT 4SM -RA BR BKN025 OVC050
     FM151700 34012KT P6SM OVC025
      TEMPO 1517/1519 -SHRA
     FM152000 35012KT P6SM SCT030=



000
FTUS43 KDVN 142300
TAFDBQ
TAF
KDBQ 142320Z 1500/1524 23008KT P6SM SCT050 BKN120 PROB30 1510/1513
      -SHRA BKN050
     FM151300 15004KT 5SM -RA BR BKN025 OVC050
     FM151800 36010KT P6SM OVC025
      TEMPO 1518/1520 -SHRA
     FM152000 35010KT P6SM BKN035=



000
FTUS43 KDVN 142300
TAFMLI
TAF
KMLI 142320Z 1500/1524 23006KT P6SM SCT050 BKN120 PROB30 1510/1513
      -SHRA BKN040
     FM151300 18004KT 5SM -RA BR BKN025 OVC050
     FM151700 30008KT P6SM OVC035
      TEMPO 1517/1520 -SHRA
     FM152000 33011KT P6SM BKN050=



000
FTUS43 KDVN 142000 AAA
TAFDBQ
TAF AMD
KDBQ 142025Z 1420/1518 20009KT P6SM FEW070 SCT120
     FM150500 17003KT P6SM BKN070 OVC120
     FM151200 10004KT P6SM VCSH OVC040
     FM151400 05006KT 4SM -RA BR BKN025 OVC050=



    US Dept of Commerce
    National Oceanic and Atmospheric Administration
    National Weather Service
    1325 East West Highway
    Silver Spring, MD 20910
    Page Author: NWS Internet Services Team
Disclaimer
Information Quality
Credits
Glossary
Privacy Policy
Freedom of Information Act (FOIA)
About Us
Career Opportunities